sensor_id;sensor_type;location;lat;lon;timestamp;temperature;humidity
16102;DHT22;56411;52.964;10.540;2022-12-07T00:01:07;2.30;99.90
16102;DHT22;56411;52.964;10.540;2022-12-07T00:03:36;2.30;99.90
16102;DHT22;56411;52.964;10.540;2022-12-07T00:06:05;2.30;99.90
16102;DHT22;56411;52.964;10.540;2022-12-07T00:08:33;2.30;99.90
16102;DHT22;56411;52.964;10.540;2022-12-07T00:11:02;2.30;99.90
16102;DHT22;56411;52.964;10.540;2022-12-07T00:13:29;2.30;99.90
16102;DHT22;56411;52.964;10.540;2022-12-07T00:16:00;2.30;99.90
16102;DHT22;56411;52.964;10.540;2022-12-07T00:18:28;2.30;99.90
16102;DHT22;56411;52.964;10.540;2022-12-07T00:21:01;2.30;99.90
16102;DHT22;56411;52.964;10.540;2022-12-07T00:23:29;2.40;99.90
16102;DHT22;56411;52.964;10.540;2022-12-07T00:26:02;2.40;99.90
16102;DHT22;56411;52.964;10.540;2022-12-07T00:28:29;2.40;99.90
16102;DHT22;56411;52.964;10.540;2022-12-07T00:31:00;2.40;99.90
16102;DHT22;56411;52.964;10.540;2022-12-07T00:33:28;2.40;99.90
16102;DHT22;56411;52.964;10.540;2022-12-07T00:35:56;2.40;99.90
16102;DHT22;56411;52.964;10.540;2022-12-07T00:38:27;2.40;99.90
16102;DHT22;56411;52.964;10.540;2022-12-07T00:40:56;2.40;99.90
16102;DHT22;56411;52.964;10.540;2022-12-07T00:43:23;2.50;99.90
16102;DHT22;56411;52.964;10.540;2022-12-07T00:45:51;2.50;99.90
16102;DHT22;56411;52.964;10.540;2022-12-07T00:48:18;2.50;99.90
16102;DHT22;56411;52.964;10.540;2022-12-07T00:50:46;2.50;99.90
16102;DHT22;56411;52.964;10.540;2022-12-07T00:53:13;2.50;99.90
16102;DHT22;56411;52.964;10.540;2022-12-07T00:55:42;2.50;99.90
16102;DHT22;56411;52.964;10.540;2022-12-07T00:58:10;2.50;99.90
16102;DHT22;56411;52.964;10.540;2022-12-07T01:00:39;2.50;99.90
16102;DHT22;56411;52.964;10.540;2022-12-07T01:03:08;2.60;99.90
16102;DHT22;56411;52.964;10.540;2022-12-07T01:05:36;2.60;99.90
16102;DHT22;56411;52.964;10.540;2022-12-07T01:08:04;2.60;99.90
16102;DHT22;56411;52.964;10.540;2022-12-07T01:10:32;2.60;99.90
16102;DHT22;56411;52.964;10.540;2022-12-07T01:13:01;2.60;99.90
16102;DHT22;56411;52.964;10.540;2022-12-07T01:15:28;2.60;99.90
16102;DHT22;56411;52.964;10.540;2022-12-07T01:17:56;2.60;99.90
16102;DHT22;56411;52.964;10.540;2022-12-07T01:20:23;2.60;99.90
16102;DHT22;56411;52.964;10.540;2022-12-07T01:22:51;2.60;99.90
16102;DHT22;56411;52.964;10.540;2022-12-07T01:25:18;2.60;99.90
16102;DHT22;56411;52.964;10.540;2022-12-07T01:27:45;2.70;99.90
16102;DHT22;56411;52.964;10.540;2022-12-07T01:30:15;2.70;99.90
16102;DHT22;56411;52.964;10.540;2022-12-07T01:32:42;2.70;99.90
16102;DHT22;56411;52.964;10.540;2022-12-07T01:35:09;2.70;99.90
16102;DHT22;56411;52.964;10.540;2022-12-07T01:37:37;2.70;99.90
16102;DHT22;56411;52.964;10.540;2022-12-07T01:40:07;2.80;99.90
16102;DHT22;56411;52.964;10.540;2022-12-07T01:42:35;2.80;99.90
16102;DHT22;56411;52.964;10.540;2022-12-07T01:48:12;2.80;99.90
16102;DHT22;56411;52.964;10.540;2022-12-07T01:50:42;2.80;99.90
16102;DHT22;56411;52.964;10.540;2022-12-07T01:53:10;2.80;99.90
16102;DHT22;56411;52.964;10.540;2022-12-07T01:55:42;2.80;99.90
16102;DHT22;56411;52.964;10.540;2022-12-07T01:58:11;2.80;99.90
16102;DHT22;56411;52.964;10.540;2022-12-07T02:00:39;2.80;99.90
16102;DHT22;56411;52.964;10.540;2022-12-07T02:03:11;2.80;99.90
16102;DHT22;56411;52.964;10.540;2022-12-07T02:05:42;2.90;99.90
16102;DHT22;56411;52.964;10.540;2022-12-07T02:08:10;2.90;99.90
16102;DHT22;56411;52.964;10.540;2022-12-07T02:10:39;2.90;99.90
16102;DHT22;56411;52.964;10.540;2022-12-07T02:13:11;2.90;99.90
16102;DHT22;56411;52.964;10.540;2022-12-07T02:15:47;2.90;99.90
16102;DHT22;56411;52.964;10.540;2022-12-07T02:18:29;3.00;99.90
16102;DHT22;56411;52.964;10.540;2022-12-07T02:21:03;3.00;99.90
16102;DHT22;56411;52.964;10.540;2022-12-07T02:29:40;3.00;99.90
16102;DHT22;56411;52.964;10.540;2022-12-07T02:32:16;3.00;99.90
16102;DHT22;56411;52.964;10.540;2022-12-07T02:34:50;3.00;99.90
16102;DHT22;56411;52.964;10.540;2022-12-07T02:37:27;3.00;99.90
16102;DHT22;56411;52.964;10.540;2022-12-07T02:40:18;3.00;99.90
16102;DHT22;56411;52.964;10.540;2022-12-07T02:42:49;3.10;99.90
16102;DHT22;56411;52.964;10.540;2022-12-07T02:45:21;3.10;99.90
16102;DHT22;56411;52.964;10.540;2022-12-07T02:47:51;3.10;99.90
16102;DHT22;56411;52.964;10.540;2022-12-07T02:50:20;3.10;99.90
16102;DHT22;56411;52.964;10.540;2022-12-07T02:52:48;3.10;99.90
16102;DHT22;56411;52.964;10.540;2022-12-07T02:55:21;3.20;99.90
16102;DHT22;56411;52.964;10.540;2022-12-07T02:57:59;3.20;99.90
16102;DHT22;56411;52.964;10.540;2022-12-07T03:00:31;3.20;99.90
16102;DHT22;56411;52.964;10.540;2022-12-07T03:03:08;3.20;99.90
16102;DHT22;56411;52.964;10.540;2022-12-07T03:05:54;3.20;99.90
16102;DHT22;56411;52.964;10.540;2022-12-07T03:08:31;3.30;99.90
16102;DHT22;56411;52.964;10.540;2022-12-07T03:11:04;3.30;99.90
16102;DHT22;56411;52.964;10.540;2022-12-07T03:13:36;3.30;99.90
16102;DHT22;56411;52.964;10.540;2022-12-07T03:16:09;3.30;99.90
16102;DHT22;56411;52.964;10.540;2022-12-07T03:18:41;3.30;99.90
16102;DHT22;56411;52.964;10.540;2022-12-07T03:21:16;3.30;99.90
16102;DHT22;56411;52.964;10.540;2022-12-07T03:23:46;3.20;99.90
16102;DHT22;56411;52.964;10.540;2022-12-07T03:26:18;3.20;99.90
16102;DHT22;56411;52.964;10.540;2022-12-07T03:28:50;3.20;99.90
16102;DHT22;56411;52.964;10.540;2022-12-07T03:31:21;3.20;99.90
16102;DHT22;56411;52.964;10.540;2022-12-07T03:33:52;3.20;99.90
16102;DHT22;56411;52.964;10.540;2022-12-07T03:36:25;3.20;99.90
16102;DHT22;56411;52.964;10.540;2022-12-07T03:38:57;3.20;99.90
16102;DHT22;56411;52.964;10.540;2022-12-07T03:41:30;3.20;99.90
16102;DHT22;56411;52.964;10.540;2022-12-07T03:43:58;3.20;99.90
16102;DHT22;56411;52.964;10.540;2022-12-07T03:46:32;3.30;99.90
16102;DHT22;56411;52.964;10.540;2022-12-07T03:49:07;3.30;99.90
16102;DHT22;56411;52.964;10.540;2022-12-07T03:51:40;3.30;99.90
16102;DHT22;56411;52.964;10.540;2022-12-07T03:54:14;3.30;99.90
16102;DHT22;56411;52.964;10.540;2022-12-07T03:56:44;3.30;99.90
16102;DHT22;56411;52.964;10.540;2022-12-07T03:59:13;3.30;99.90
16102;DHT22;56411;52.964;10.540;2022-12-07T04:01:42;3.20;99.90
16102;DHT22;56411;52.964;10.540;2022-12-07T04:04:09;3.20;99.90
16102;DHT22;56411;52.964;10.540;2022-12-07T04:06:36;3.20;99.90
16102;DHT22;56411;52.964;10.540;2022-12-07T04:09:04;3.20;99.90
16102;DHT22;56411;52.964;10.540;2022-12-07T04:11:31;3.20;99.90
16102;DHT22;56411;52.964;10.540;2022-12-07T04:14:00;3.20;99.90
16102;DHT22;56411;52.964;10.540;2022-12-07T04:16:46;3.10;99.90
16102;DHT22;56411;52.964;10.540;2022-12-07T04:19:14;3.20;99.90
16102;DHT22;56411;52.964;10.540;2022-12-07T04:21:42;3.10;99.90
16102;DHT22;56411;52.964;10.540;2022-12-07T04:24:11;3.00;99.90
16102;DHT22;56411;52.964;10.540;2022-12-07T04:26:38;2.90;99.90
16102;DHT22;56411;52.964;10.540;2022-12-07T04:29:07;2.80;99.90
16102;DHT22;56411;52.964;10.540;2022-12-07T04:31:34;2.70;99.90
16102;DHT22;56411;52.964;10.540;2022-12-07T04:34:02;2.70;99.90
16102;DHT22;56411;52.964;10.540;2022-12-07T04:36:29;2.70;99.90
16102;DHT22;56411;52.964;10.540;2022-12-07T04:38:57;2.60;99.90
16102;DHT22;56411;52.964;10.540;2022-12-07T04:41:25;2.50;99.90
16102;DHT22;56411;52.964;10.540;2022-12-07T04:43:54;2.50;99.90
16102;DHT22;56411;52.964;10.540;2022-12-07T04:46:24;2.40;99.90
16102;DHT22;56411;52.964;10.540;2022-12-07T04:48:53;2.40;99.90
16102;DHT22;56411;52.964;10.540;2022-12-07T04:51:22;2.30;99.90
16102;DHT22;56411;52.964;10.540;2022-12-07T04:53:50;2.30;99.90
16102;DHT22;56411;52.964;10.540;2022-12-07T04:56:18;2.30;99.90
16102;DHT22;56411;52.964;10.540;2022-12-07T04:58:46;2.20;99.90
16102;DHT22;56411;52.964;10.540;2022-12-07T05:01:15;2.20;99.90
16102;DHT22;56411;52.964;10.540;2022-12-07T05:03:45;2.20;99.90
16102;DHT22;56411;52.964;10.540;2022-12-07T05:06:13;2.10;99.90
16102;DHT22;56411;52.964;10.540;2022-12-07T05:08:41;2.10;99.90
16102;DHT22;56411;52.964;10.540;2022-12-07T05:11:09;2.10;99.90
16102;DHT22;56411;52.964;10.540;2022-12-07T05:13:56;2.00;99.90
16102;DHT22;56411;52.964;10.540;2022-12-07T05:16:24;2.10;99.90
16102;DHT22;56411;52.964;10.540;2022-12-07T05:18:52;2.30;99.90
16102;DHT22;56411;52.964;10.540;2022-12-07T05:21:19;2.20;99.90
16102;DHT22;56411;52.964;10.540;2022-12-07T05:23:47;2.10;99.90
16102;DHT22;56411;52.964;10.540;2022-12-07T05:26:14;2.10;99.90
16102;DHT22;56411;52.964;10.540;2022-12-07T05:28:41;2.00;99.90
16102;DHT22;56411;52.964;10.540;2022-12-07T05:31:09;2.00;99.90
16102;DHT22;56411;52.964;10.540;2022-12-07T05:33:36;2.00;99.90
16102;DHT22;56411;52.964;10.540;2022-12-07T05:36:05;2.00;99.90
16102;DHT22;56411;52.964;10.540;2022-12-07T05:38:33;2.00;99.90
16102;DHT22;56411;52.964;10.540;2022-12-07T05:41:01;1.90;99.90
16102;DHT22;56411;52.964;10.540;2022-12-07T05:43:28;1.90;99.90
16102;DHT22;56411;52.964;10.540;2022-12-07T05:45:56;1.90;99.90
16102;DHT22;56411;52.964;10.540;2022-12-07T05:48:23;1.80;99.90
16102;DHT22;56411;52.964;10.540;2022-12-07T05:50:52;1.80;99.90
16102;DHT22;56411;52.964;10.540;2022-12-07T05:53:21;1.70;99.90
16102;DHT22;56411;52.964;10.540;2022-12-07T05:55:49;1.70;99.90
16102;DHT22;56411;52.964;10.540;2022-12-07T05:58:16;1.60;99.90
16102;DHT22;56411;52.964;10.540;2022-12-07T06:01:00;1.50;99.90
16102;DHT22;56411;52.964;10.540;2022-12-07T06:03:27;1.60;99.90
16102;DHT22;56411;52.964;10.540;2022-12-07T06:05:54;1.60;99.90
16102;DHT22;56411;52.964;10.540;2022-12-07T06:08:23;1.50;99.90
16102;DHT22;56411;52.964;10.540;2022-12-07T06:10:50;1.60;99.90
16102;DHT22;56411;52.964;10.540;2022-12-07T06:13:37;1.60;99.90
16102;DHT22;56411;52.964;10.540;2022-12-07T06:16:04;1.60;99.90
16102;DHT22;56411;52.964;10.540;2022-12-07T06:18:31;1.60;99.90
16102;DHT22;56411;52.964;10.540;2022-12-07T06:20:59;1.60;99.90
16102;DHT22;56411;52.964;10.540;2022-12-07T06:23:28;1.60;99.90
16102;DHT22;56411;52.964;10.540;2022-12-07T06:25:55;1.50;99.90
16102;DHT22;56411;52.964;10.540;2022-12-07T06:28:22;1.60;99.90
16102;DHT22;56411;52.964;10.540;2022-12-07T06:30:57;1.60;99.90
16102;DHT22;56411;52.964;10.540;2022-12-07T06:33:24;1.50;99.90
16102;DHT22;56411;52.964;10.540;2022-12-07T06:35:52;1.50;99.90
16102;DHT22;56411;52.964;10.540;2022-12-07T06:38:19;1.40;99.90
16102;DHT22;56411;52.964;10.540;2022-12-07T06:40:48;1.40;99.90
16102;DHT22;56411;52.964;10.540;2022-12-07T06:43:15;1.40;99.90
16102;DHT22;56411;52.964;10.540;2022-12-07T06:45:42;1.30;99.90
16102;DHT22;56411;52.964;10.540;2022-12-07T06:48:10;1.30;99.90
16102;DHT22;56411;52.964;10.540;2022-12-07T06:50:37;1.30;99.90
16102;DHT22;56411;52.964;10.540;2022-12-07T06:53:04;1.30;99.90
16102;DHT22;56411;52.964;10.540;2022-12-07T06:55:31;1.30;99.90
16102;DHT22;56411;52.964;10.540;2022-12-07T06:58:00;1.40;99.90
16102;DHT22;56411;52.964;10.540;2022-12-07T07:00:28;1.40;99.90
16102;DHT22;56411;52.964;10.540;2022-12-07T07:02:56;1.40;99.90
16102;DHT22;56411;52.964;10.540;2022-12-07T07:05:23;1.40;99.90
16102;DHT22;56411;52.964;10.540;2022-12-07T07:07:51;1.40;99.90
16102;DHT22;56411;52.964;10.540;2022-12-07T07:10:18;1.40;99.90
16102;DHT22;56411;52.964;10.540;2022-12-07T07:12:45;1.40;99.90
16102;DHT22;56411;52.964;10.540;2022-12-07T07:15:14;1.40;99.90
16102;DHT22;56411;52.964;10.540;2022-12-07T07:17:41;1.40;99.90
16102;DHT22;56411;52.964;10.540;2022-12-07T07:20:09;1.50;99.90
16102;DHT22;56411;52.964;10.540;2022-12-07T07:22:37;1.50;99.90
16102;DHT22;56411;52.964;10.540;2022-12-07T07:25:04;1.50;99.90
16102;DHT22;56411;52.964;10.540;2022-12-07T07:27:31;1.50;99.90
16102;DHT22;56411;52.964;10.540;2022-12-07T07:29:58;1.50;99.90
16102;DHT22;56411;52.964;10.540;2022-12-07T07:32:27;1.50;99.90
16102;DHT22;56411;52.964;10.540;2022-12-07T07:34:54;1.50;99.90
16102;DHT22;56411;52.964;10.540;2022-12-07T07:37:22;1.60;99.90
16102;DHT22;56411;52.964;10.540;2022-12-07T07:39:50;1.60;99.90
16102;DHT22;56411;52.964;10.540;2022-12-07T07:42:17;1.60;99.90
16102;DHT22;56411;52.964;10.540;2022-12-07T07:44:44;1.60;99.90
16102;DHT22;56411;52.964;10.540;2022-12-07T07:47:11;1.60;99.90
16102;DHT22;56411;52.964;10.540;2022-12-07T07:49:40;1.60;99.90
16102;DHT22;56411;52.964;10.540;2022-12-07T07:52:07;1.70;99.90
16102;DHT22;56411;52.964;10.540;2022-12-07T07:54:35;1.70;99.90
16102;DHT22;56411;52.964;10.540;2022-12-07T07:57:02;1.70;99.90
16102;DHT22;56411;52.964;10.540;2022-12-07T07:59:29;1.80;99.90
16102;DHT22;56411;52.964;10.540;2022-12-07T08:01:57;1.90;99.90
16102;DHT22;56411;52.964;10.540;2022-12-07T08:04:24;1.90;99.90
16102;DHT22;56411;52.964;10.540;2022-12-07T08:06:53;1.90;99.90
16102;DHT22;56411;52.964;10.540;2022-12-07T08:09:20;2.00;99.90
16102;DHT22;56411;52.964;10.540;2022-12-07T08:11:48;2.00;99.90
16102;DHT22;56411;52.964;10.540;2022-12-07T08:14:15;2.00;99.90
16102;DHT22;56411;52.964;10.540;2022-12-07T08:16:42;2.00;99.90
16102;DHT22;56411;52.964;10.540;2022-12-07T08:19:09;2.00;99.90
16102;DHT22;56411;52.964;10.540;2022-12-07T08:21:37;2.00;99.90
16102;DHT22;56411;52.964;10.540;2022-12-07T08:24:06;2.00;99.90
16102;DHT22;56411;52.964;10.540;2022-12-07T08:26:33;2.00;99.90
16102;DHT22;56411;52.964;10.540;2022-12-07T08:29:00;2.00;99.90
16102;DHT22;56411;52.964;10.540;2022-12-07T08:31:29;2.10;99.90
16102;DHT22;56411;52.964;10.540;2022-12-07T08:33:57;2.10;99.90
16102;DHT22;56411;52.964;10.540;2022-12-07T08:36:24;2.10;99.90
16102;DHT22;56411;52.964;10.540;2022-12-07T08:38:51;2.10;99.90
16102;DHT22;56411;52.964;10.540;2022-12-07T08:41:21;2.20;99.90
16102;DHT22;56411;52.964;10.540;2022-12-07T08:43:48;2.20;99.90
16102;DHT22;56411;52.964;10.540;2022-12-07T08:46:19;2.20;99.90
16102;DHT22;56411;52.964;10.540;2022-12-07T08:48:51;2.30;99.90
16102;DHT22;56411;52.964;10.540;2022-12-07T08:51:21;2.30;99.90
16102;DHT22;56411;52.964;10.540;2022-12-07T08:53:49;2.30;99.90
16102;DHT22;56411;52.964;10.540;2022-12-07T08:56:17;2.30;99.90
16102;DHT22;56411;52.964;10.540;2022-12-07T08:58:46;2.30;99.90
16102;DHT22;56411;52.964;10.540;2022-12-07T09:01:14;2.30;99.90
16102;DHT22;56411;52.964;10.540;2022-12-07T09:03:41;2.30;99.90
16102;DHT22;56411;52.964;10.540;2022-12-07T09:06:08;2.30;99.90
16102;DHT22;56411;52.964;10.540;2022-12-07T09:08:39;2.40;99.90
16102;DHT22;56411;52.964;10.540;2022-12-07T09:11:08;2.40;99.90
16102;DHT22;56411;52.964;10.540;2022-12-07T09:13:35;2.50;99.90
16102;DHT22;56411;52.964;10.540;2022-12-07T09:16:04;2.50;99.90
16102;DHT22;56411;52.964;10.540;2022-12-07T09:18:31;2.60;99.90
16102;DHT22;56411;52.964;10.540;2022-12-07T09:20:59;2.60;99.90
16102;DHT22;56411;52.964;10.540;2022-12-07T09:23:26;2.70;99.90
16102;DHT22;56411;52.964;10.540;2022-12-07T09:25:54;2.70;99.90
16102;DHT22;56411;52.964;10.540;2022-12-07T09:28:21;2.70;99.90
16102;DHT22;56411;52.964;10.540;2022-12-07T09:30:49;2.80;99.90
16102;DHT22;56411;52.964;10.540;2022-12-07T09:33:18;2.80;99.90
16102;DHT22;56411;52.964;10.540;2022-12-07T09:35:45;2.80;99.90
16102;DHT22;56411;52.964;10.540;2022-12-07T09:38:13;2.90;99.90
16102;DHT22;56411;52.964;10.540;2022-12-07T09:40:41;2.90;99.90
16102;DHT22;56411;52.964;10.540;2022-12-07T09:43:13;2.90;99.90
16102;DHT22;56411;52.964;10.540;2022-12-07T09:45:42;3.00;99.90
16102;DHT22;56411;52.964;10.540;2022-12-07T09:48:18;3.10;99.90
16102;DHT22;56411;52.964;10.540;2022-12-07T09:50:47;3.20;99.90
16102;DHT22;56411;52.964;10.540;2022-12-07T09:53:25;3.20;99.90
16102;DHT22;56411;52.964;10.540;2022-12-07T09:55:53;3.20;99.90
16102;DHT22;56411;52.964;10.540;2022-12-07T09:58:23;3.20;99.90
16102;DHT22;56411;52.964;10.540;2022-12-07T10:00:53;3.20;99.90
16102;DHT22;56411;52.964;10.540;2022-12-07T10:03:26;3.20;99.90
16102;DHT22;56411;52.964;10.540;2022-12-07T10:05:54;3.30;99.90
16102;DHT22;56411;52.964;10.540;2022-12-07T10:08:24;3.30;99.90
16102;DHT22;56411;52.964;10.540;2022-12-07T10:10:53;3.40;99.90
16102;DHT22;56411;52.964;10.540;2022-12-07T10:13:32;3.50;99.90
16102;DHT22;56411;52.964;10.540;2022-12-07T10:16:02;3.40;99.90
16102;DHT22;56411;52.964;10.540;2022-12-07T10:18:36;3.40;99.90
16102;DHT22;56411;52.964;10.540;2022-12-07T10:21:12;3.40;99.90
16102;DHT22;56411;52.964;10.540;2022-12-07T10:23:41;3.40;99.90
16102;DHT22;56411;52.964;10.540;2022-12-07T10:26:28;3.40;99.90
16102;DHT22;56411;52.964;10.540;2022-12-07T10:28:56;3.40;99.90
16102;DHT22;56411;52.964;10.540;2022-12-07T10:31:25;3.40;99.90
16102;DHT22;56411;52.964;10.540;2022-12-07T10:33:56;3.40;99.90
16102;DHT22;56411;52.964;10.540;2022-12-07T10:36:26;3.30;99.90
16102;DHT22;56411;52.964;10.540;2022-12-07T10:39:00;3.30;99.90
16102;DHT22;56411;52.964;10.540;2022-12-07T10:41:27;3.30;99.90
16102;DHT22;56411;52.964;10.540;2022-12-07T10:43:55;3.30;99.90
16102;DHT22;56411;52.964;10.540;2022-12-07T10:46:42;3.30;99.90
16102;DHT22;56411;52.964;10.540;2022-12-07T10:52:44;3.30;99.90
16102;DHT22;56411;52.964;10.540;2022-12-07T10:55:22;3.30;99.90
16102;DHT22;56411;52.964;10.540;2022-12-07T10:58:18;3.20;99.90
16102;DHT22;56411;52.964;10.540;2022-12-07T11:00:58;3.20;99.90
16102;DHT22;56411;52.964;10.540;2022-12-07T11:03:37;3.20;99.90
16102;DHT22;56411;52.964;10.540;2022-12-07T11:06:26;3.20;99.90
16102;DHT22;56411;52.964;10.540;2022-12-07T11:09:24;3.20;99.90
16102;DHT22;56411;52.964;10.540;2022-12-07T11:11:59;3.20;99.90
16102;DHT22;56411;52.964;10.540;2022-12-07T11:14:36;3.10;99.90
16102;DHT22;56411;52.964;10.540;2022-12-07T11:17:12;3.00;99.90
16102;DHT22;56411;52.964;10.540;2022-12-07T11:19:52;3.00;99.90
16102;DHT22;56411;52.964;10.540;2022-12-07T11:22:36;3.00;99.90
16102;DHT22;56411;52.964;10.540;2022-12-07T11:25:17;3.10;99.90
16102;DHT22;56411;52.964;10.540;2022-12-07T11:27:51;3.10;99.90
16102;DHT22;56411;52.964;10.540;2022-12-07T11:30:24;3.20;99.90
16102;DHT22;56411;52.964;10.540;2022-12-07T11:33:05;3.30;99.90
16102;DHT22;56411;52.964;10.540;2022-12-07T11:35:43;3.20;99.90
16102;DHT22;56411;52.964;10.540;2022-12-07T11:38:17;3.30;99.90
16102;DHT22;56411;52.964;10.540;2022-12-07T11:40:49;3.40;99.90
16102;DHT22;56411;52.964;10.540;2022-12-07T11:43:22;3.50;99.90
16102;DHT22;56411;52.964;10.540;2022-12-07T11:45:57;3.60;99.90
16102;DHT22;56411;52.964;10.540;2022-12-07T11:48:30;3.70;99.90
16102;DHT22;56411;52.964;10.540;2022-12-07T11:51:01;3.70;99.90
16102;DHT22;56411;52.964;10.540;2022-12-07T11:53:35;3.80;99.90
16102;DHT22;56411;52.964;10.540;2022-12-07T11:56:09;3.90;99.90
16102;DHT22;56411;52.964;10.540;2022-12-07T11:58:49;4.00;99.90
16102;DHT22;56411;52.964;10.540;2022-12-07T12:01:33;4.00;99.90
16102;DHT22;56411;52.964;10.540;2022-12-07T12:04:06;4.00;99.90
16102;DHT22;56411;52.964;10.540;2022-12-07T12:06:42;4.00;99.90
16102;DHT22;56411;52.964;10.540;2022-12-07T12:09:14;4.00;99.90
16102;DHT22;56411;52.964;10.540;2022-12-07T12:12:00;4.10;99.90
16102;DHT22;56411;52.964;10.540;2022-12-07T12:14:42;4.30;99.90
16102;DHT22;56411;52.964;10.540;2022-12-07T12:17:45;4.20;99.90
16102;DHT22;56411;52.964;10.540;2022-12-07T12:20:22;4.00;99.90
16102;DHT22;56411;52.964;10.540;2022-12-07T12:22:54;4.00;99.90
16102;DHT22;56411;52.964;10.540;2022-12-07T12:25:26;4.00;99.90
16102;DHT22;56411;52.964;10.540;2022-12-07T12:27:57;4.10;99.90
16102;DHT22;56411;52.964;10.540;2022-12-07T12:30:32;4.20;99.90
16102;DHT22;56411;52.964;10.540;2022-12-07T12:33:06;4.20;99.90
16102;DHT22;56411;52.964;10.540;2022-12-07T12:35:39;4.20;99.90
16102;DHT22;56411;52.964;10.540;2022-12-07T12:38:29;4.40;99.90
16102;DHT22;56411;52.964;10.540;2022-12-07T12:40:58;4.50;99.90
16102;DHT22;56411;52.964;10.540;2022-12-07T12:43:56;4.40;99.90
16102;DHT22;56411;52.964;10.540;2022-12-07T12:46:48;4.30;99.90
16102;DHT22;56411;52.964;10.540;2022-12-07T12:49:40;4.20;99.90
16102;DHT22;56411;52.964;10.540;2022-12-07T12:58:39;3.90;99.90
16102;DHT22;56411;52.964;10.540;2022-12-07T13:01:37;3.80;99.90
16102;DHT22;56411;52.964;10.540;2022-12-07T13:06:59;3.60;99.90
16102;DHT22;56411;52.964;10.540;2022-12-07T13:09:29;3.60;99.90
16102;DHT22;56411;52.964;10.540;2022-12-07T13:12:01;3.50;99.90
16102;DHT22;56411;52.964;10.540;2022-12-07T13:14:53;3.50;99.90
16102;DHT22;56411;52.964;10.540;2022-12-07T13:18:00;3.40;99.90
16102;DHT22;56411;52.964;10.540;2022-12-07T13:20:51;3.60;99.90
16102;DHT22;56411;52.964;10.540;2022-12-07T13:23:37;4.10;99.90
16102;DHT22;56411;52.964;10.540;2022-12-07T13:26:14;4.30;99.90
16102;DHT22;56411;52.964;10.540;2022-12-07T13:28:43;4.20;99.90
16102;DHT22;56411;52.964;10.540;2022-12-07T13:31:34;4.00;99.90
16102;DHT22;56411;52.964;10.540;2022-12-07T13:34:03;4.00;99.90
16102;DHT22;56411;52.964;10.540;2022-12-07T13:36:33;3.90;99.90
16102;DHT22;56411;52.964;10.540;2022-12-07T13:39:16;3.80;99.90
16102;DHT22;56411;52.964;10.540;2022-12-07T13:41:48;3.60;99.90
16102;DHT22;56411;52.964;10.540;2022-12-07T13:44:16;3.40;99.90
16102;DHT22;56411;52.964;10.540;2022-12-07T13:46:51;3.30;99.90
16102;DHT22;56411;52.964;10.540;2022-12-07T13:49:23;3.30;99.90
16102;DHT22;56411;52.964;10.540;2022-12-07T13:51:51;3.20;99.90
16102;DHT22;56411;52.964;10.540;2022-12-07T13:54:20;3.10;99.90
16102;DHT22;56411;52.964;10.540;2022-12-07T13:56:49;3.10;99.90
16102;DHT22;56411;52.964;10.540;2022-12-07T13:59:19;3.00;99.90
16102;DHT22;56411;52.964;10.540;2022-12-07T14:01:50;3.00;99.90
16102;DHT22;56411;52.964;10.540;2022-12-07T14:04:33;3.00;99.90
16102;DHT22;56411;52.964;10.540;2022-12-07T14:07:22;2.90;99.90
16102;DHT22;56411;52.964;10.540;2022-12-07T14:09:58;2.90;99.90
16102;DHT22;56411;52.964;10.540;2022-12-07T14:12:27;2.90;99.90
16102;DHT22;56411;52.964;10.540;2022-12-07T14:14:56;2.90;99.90
16102;DHT22;56411;52.964;10.540;2022-12-07T14:17:26;2.80;99.90
16102;DHT22;56411;52.964;10.540;2022-12-07T14:19:54;2.80;99.90
16102;DHT22;56411;52.964;10.540;2022-12-07T14:22:28;2.80;99.90
16102;DHT22;56411;52.964;10.540;2022-12-07T14:27:56;2.80;99.90
16102;DHT22;56411;52.964;10.540;2022-12-07T14:30:26;2.80;99.90
16102;DHT22;56411;52.964;10.540;2022-12-07T14:32:59;2.80;99.90
16102;DHT22;56411;52.964;10.540;2022-12-07T14:35:30;2.80;99.90
16102;DHT22;56411;52.964;10.540;2022-12-07T14:37:58;2.80;99.90
16102;DHT22;56411;52.964;10.540;2022-12-07T14:40:29;2.80;99.90
16102;DHT22;56411;52.964;10.540;2022-12-07T14:43:00;2.70;99.90
16102;DHT22;56411;52.964;10.540;2022-12-07T14:45:28;2.70;99.90
16102;DHT22;56411;52.964;10.540;2022-12-07T14:47:57;2.70;99.90
16102;DHT22;56411;52.964;10.540;2022-12-07T14:50:25;2.60;99.90
16102;DHT22;56411;52.964;10.540;2022-12-07T14:52:56;2.60;99.90
16102;DHT22;56411;52.964;10.540;2022-12-07T14:55:25;2.60;99.90
16102;DHT22;56411;52.964;10.540;2022-12-07T14:58:07;2.70;99.90
16102;DHT22;56411;52.964;10.540;2022-12-07T15:00:38;2.70;99.90
16102;DHT22;56411;52.964;10.540;2022-12-07T15:03:07;2.70;99.90
16102;DHT22;56411;52.964;10.540;2022-12-07T15:05:35;2.70;99.90
16102;DHT22;56411;52.964;10.540;2022-12-07T15:08:03;2.70;99.90
16102;DHT22;56411;52.964;10.540;2022-12-07T15:10:33;2.60;99.90
16102;DHT22;56411;52.964;10.540;2022-12-07T15:13:04;2.60;99.90
16102;DHT22;56411;52.964;10.540;2022-12-07T15:15:46;2.60;99.90
16102;DHT22;56411;52.964;10.540;2022-12-07T15:18:15;2.60;99.90
16102;DHT22;56411;52.964;10.540;2022-12-07T15:20:43;2.60;99.90
16102;DHT22;56411;52.964;10.540;2022-12-07T15:23:10;2.60;99.90
16102;DHT22;56411;52.964;10.540;2022-12-07T15:25:40;2.50;99.90
16102;DHT22;56411;52.964;10.540;2022-12-07T15:28:08;2.50;99.90
16102;DHT22;56411;52.964;10.540;2022-12-07T15:30:37;2.40;99.90
16102;DHT22;56411;52.964;10.540;2022-12-07T15:33:04;2.30;99.90
16102;DHT22;56411;52.964;10.540;2022-12-07T15:35:33;2.30;99.90
16102;DHT22;56411;52.964;10.540;2022-12-07T15:38:01;2.20;99.90
16102;DHT22;56411;52.964;10.540;2022-12-07T15:40:29;2.10;99.90
16102;DHT22;56411;52.964;10.540;2022-12-07T15:42:57;2.10;99.90
16102;DHT22;56411;52.964;10.540;2022-12-07T15:45:25;2.10;99.90
16102;DHT22;56411;52.964;10.540;2022-12-07T15:47:51;2.10;99.90
16102;DHT22;56411;52.964;10.540;2022-12-07T15:50:21;2.10;99.90
16102;DHT22;56411;52.964;10.540;2022-12-07T15:52:50;2.10;99.90
16102;DHT22;56411;52.964;10.540;2022-12-07T15:55:17;2.00;99.90
16102;DHT22;56411;52.964;10.540;2022-12-07T15:57:45;2.00;99.90
16102;DHT22;56411;52.964;10.540;2022-12-07T16:00:13;1.90;99.90
16102;DHT22;56411;52.964;10.540;2022-12-07T16:02:40;1.80;99.90
16102;DHT22;56411;52.964;10.540;2022-12-07T16:05:08;1.80;99.90
16102;DHT22;56411;52.964;10.540;2022-12-07T16:07:35;1.80;99.90
16102;DHT22;56411;52.964;10.540;2022-12-07T16:10:06;1.70;99.90
16102;DHT22;56411;52.964;10.540;2022-12-07T16:12:34;1.60;99.90
16102;DHT22;56411;52.964;10.540;2022-12-07T16:15:01;1.50;99.90
16102;DHT22;56411;52.964;10.540;2022-12-07T16:17:28;1.50;99.90
16102;DHT22;56411;52.964;10.540;2022-12-07T16:19:55;1.50;99.90